Time;durP1;ratioP1;P1;durP2;ratioP2;P2;SDS_P1;SDS_P2;PMS_P1;PMS_P2;Temp;Humidity;BMP_temperature;BMP_pressure;BME280_temperature;BME280_humidity;BME280_pressure;Samples;Min_cycle;Max_cycle;Signal;HPM_P1;HPM_P2
2022/02/03 00:00:45;;;;;;;45.90;22.60;;;;;1.38;96874.60;;;;110974;1249;41748;-60
2022/02/03 00:03:23;;;;;;;43.10;22.40;;;;;1.20;96880.20;;;;110988;1248;41156;-64
2022/02/03 00:05:59;;;;;;;40.50;19.90;;;;;1.20;96882.20;;;;111059;1247;42298;-65
2022/02/03 00:16:58;;;;;;;40.10;19.70;;;;;1.40;96890.60;;;;110972;1247;41402;-62
2022/02/03 00:22:44;;;;;;;34.30;16.30;;;;;1.50;96901.60;;;;110983;1248;41171;-64
2022/02/03 00:30:31;;;;;;;33.70;15.60;;;;;1.60;96911.20;;;;110814;1249;41698;-60
2022/02/03 00:33:26;;;;;;;36.30;17.20;;;;;1.68;96909.80;;;;110897;1249;41172;-59
2022/02/03 00:49:49;;;;;;;48.30;20.10;;;;;1.72;96920.00;;;;111042;1246;41368;-62
2022/02/03 00:52:20;;;;;;;38.80;19.40;;;;;1.70;96927.20;;;;110885;1250;42411;-61
2022/02/03 00:54:49;;;;;;;38.90;18.60;;;;;1.70;96917.20;;;;110995;1247;41162;-64
2022/02/03 00:57:53;;;;;;;41.00;19.80;;;;;1.70;96930.00;;;;111032;1248;41147;-65
2022/02/03 01:00:22;;;;;;;36.80;18.60;;;;;1.70;96927.40;;;;110513;1253;41161;-58
2022/02/03 01:03:06;;;;;;;41.70;19.80;;;;;1.70;96936.40;;;;110567;1253;41164;-65
2022/02/03 01:05:38;;;;;;;38.70;19.30;;;;;1.70;96931.40;;;;110438;1255;42376;-61
2022/02/03 01:08:16;;;;;;;39.20;18.80;;;;;1.70;96932.80;;;;110449;1254;41172;-64
2022/02/03 01:10:54;;;;;;;37.20;18.50;;;;;1.70;96933.80;;;;110309;1254;41234;-59
2022/02/03 01:16:18;;;;;;;35.30;17.00;;;;;1.72;96928.60;;;;110420;1254;41870;-63
2022/02/03 01:19:15;;;;;;;39.70;19.80;;;;;1.80;96927.80;;;;110540;1253;41608;-57
2022/02/03 01:44:29;;;;;;;44.80;20.60;;;;;1.80;96941.40;;;;110951;1248;41252;-64
2022/02/03 01:47:23;;;;;;;40.70;19.80;;;;;1.80;96934.60;;;;110981;1249;41155;-65
2022/02/03 01:52:26;;;;;;;37.50;18.70;;;;;1.88;96945.60;;;;110734;1249;41565;-65
2022/02/03 01:54:58;;;;;;;36.20;19.40;;;;;1.90;96952.60;;;;110935;1249;41200;-63
2022/02/03 01:57:40;;;;;;;35.80;18.60;;;;;1.90;96953.20;;;;111086;1248;41638;-65
2022/02/03 02:00:13;;;;;;;41.40;19.00;;;;;1.90;96950.40;;;;110985;1249;41272;-65
2022/02/03 02:02:55;;;;;;;39.70;18.50;;;;;1.90;96952.00;;;;110997;1249;41190;-65
2022/02/03 02:05:53;;;;;;;35.70;18.00;;;;;1.90;96961.20;;;;111166;1246;41176;-66
2022/02/03 02:08:42;;;;;;;44.00;19.80;;;;;1.90;96975.40;;;;110645;1250;41941;-65
2022/02/03 02:11:35;;;;;;;37.10;18.40;;;;;1.90;96976.20;;;;110957;1248;42422;-64
2022/02/03 02:17:25;;;;;;;38.60;18.70;;;;;1.90;96976.00;;;;110819;1248;41604;-64
2022/02/03 02:39:59;;;;;;;34.90;17.00;;;;;1.52;97002.00;;;;110987;1249;41249;-57
2022/02/03 02:42:58;;;;;;;34.70;16.40;;;;;1.40;97011.40;;;;110999;1247;41159;-62
2022/02/03 02:45:53;;;;;;;30.20;14.80;;;;;1.20;97013.00;;;;111063;1247;41140;-62
2022/02/03 02:48:58;;;;;;;33.20;14.60;;;;;1.36;97016.00;;;;111057;1246;41858;-63
2022/02/03 02:51:47;;;;;;;29.60;15.10;;;;;1.30;97020.00;;;;110768;1249;41139;-62
2022/02/03 02:54:44;;;;;;;32.70;16.60;;;;;1.34;97017.60;;;;111041;1248;41998;-58
2022/02/03 03:33:34;;;;;;;38.20;18.40;;;;;0.86;97083.60;;;;111005;1247;41154;-64
2022/02/03 03:36:12;;;;;;;34.80;17.30;;;;;0.80;97083.80;;;;110952;1249;42214;-59
2022/02/03 03:38:47;;;;;;;33.40;16.50;;;;;0.80;97091.40;;;;110964;1247;41143;-60
2022/02/03 03:41:19;;;;;;;38.20;18.60;;;;;0.80;97097.60;;;;110875;1249;41271;-63
2022/02/03 03:44:03;;;;;;;29.60;15.10;;;;;0.80;97090.40;;;;110822;1249;41317;-61
2022/02/03 03:46:38;;;;;;;33.90;16.50;;;;;0.80;97097.40;;;;111007;1248;41624;-61
2022/02/03 03:49:44;;;;;;;34.10;16.20;;;;;0.90;97099.20;;;;111085;1247;41157;-62
2022/02/03 03:52:20;;;;;;;30.30;15.30;;;;;0.80;97102.40;;;;111027;1247;42734;-59
2022/02/03 03:55:14;;;;;;;28.30;14.60;;;;;0.84;97105.00;;;;110990;1247;41210;-59
2022/02/03 04:42:06;;;;;;;22.10;10.20;;;;;1.50;97141.00;;;;111020;1248;42383;-65
2022/02/03 05:22:34;;;;;;;28.20;13.00;;;;;1.90;97202.00;;;;111117;1247;41244;-58
2022/02/03 05:35:08;;;;;;;18.10;8.80;;;;;1.94;97236.20;;;;110969;1249;41619;-64
2022/02/03 05:44:10;;;;;;;18.00;8.20;;;;;1.78;97244.60;;;;111092;1247;41130;-65
2022/02/03 06:01:06;;;;;;;15.80;6.90;;;;;1.80;97295.40;;;;110876;1249;41260;-65
2022/02/03 06:04:04;;;;;;;16.10;7.40;;;;;1.90;97298.00;;;;110890;1249;41930;-65
2022/02/03 06:12:15;;;;;;;14.10;6.70;;;;;1.90;97316.00;;;;111022;1247;42341;-64
2022/02/03 06:17:33;;;;;;;16.20;7.10;;;;;1.84;97321.80;;;;110988;1247;41909;-63
2022/02/03 06:22:56;;;;;;;14.20;6.70;;;;;1.76;97335.60;;;;110956;1249;41154;-65
2022/02/03 06:28:15;;;;;;;13.20;6.30;;;;;1.94;97338.40;;;;111040;1247;41145;-58
2022/02/03 06:30:45;;;;;;;14.50;6.80;;;;;2.00;97338.00;;;;111041;1247;41812;-65
2022/02/03 06:33:14;;;;;;;15.10;7.40;;;;;2.10;97336.00;;;;110959;1249;41735;-65
2022/02/03 06:35:43;;;;;;;16.00;8.80;;;;;2.10;97339.20;;;;110803;1249;42369;-60
2022/02/03 06:38:13;;;;;;;15.40;6.80;;;;;2.20;97339.00;;;;110691;1249;41295;-64
2022/02/03 06:40:44;;;;;;;12.80;6.40;;;;;2.20;97348.20;;;;110795;1249;41274;-62
2022/02/03 06:43:14;;;;;;;14.60;6.40;;;;;2.24;97353.80;;;;111017;1247;41834;-57
2022/02/03 06:45:48;;;;;;;13.80;7.00;;;;;2.30;97355.80;;;;110817;1249;41294;-60
2022/02/03 06:48:20;;;;;;;14.60;6.70;;;;;2.30;97357.20;;;;110954;1250;41267;-60
2022/02/03 06:50:55;;;;;;;15.00;6.80;;;;;2.30;97355.00;;;;111079;1246;41814;-59
2022/02/03 06:53:30;;;;;;;12.70;6.50;;;;;2.30;97357.00;;;;110997;1249;41185;-62
2022/02/03 06:56:11;;;;;;;14.50;6.80;;;;;2.40;97367.00;;;;111043;1246;41261;-62
2022/02/03 06:58:50;;;;;;;13.90;6.90;;;;;2.40;97368.40;;;;111104;1248;41368;-62
2022/02/03 07:01:27;;;;;;;14.50;6.50;;;;;2.50;97370.80;;;;111113;1246;41276;-65
2022/02/03 07:04:01;;;;;;;12.80;6.40;;;;;2.46;97371.00;;;;111154;1247;41150;-59
2022/02/03 07:06:32;;;;;;;16.20;7.70;;;;;2.50;97377.80;;;;110983;1247;42848;-58
2022/02/03 07:09:07;;;;;;;14.40;7.60;;;;;2.30;97383.40;;;;111067;1246;41853;-63
2022/02/03 07:11:38;;;;;;;17.90;7.20;;;;;2.36;97383.60;;;;111022;1247;41139;-58
2022/02/03 07:14:09;;;;;;;;;;;;;2.20;97378.00;;;;110981;1248;41186;-61
2022/02/03 07:16:48;;;;;;;16.60;7.10;;;;;2.20;97379.20;;;;111033;1246;41725;-62
2022/02/03 07:19:19;;;;;;;13.70;6.90;;;;;2.30;97383.00;;;;111084;1247;41273;-64
2022/02/03 07:21:48;;;;;;;15.60;8.60;;;;;2.30;97392.60;;;;111061;1247;41154;-61
2022/02/03 07:24:17;;;;;;;16.90;8.00;;;;;2.30;97392.00;;;;111117;1246;42183;-59
2022/02/03 07:26:47;;;;;;;15.90;7.50;;;;;2.40;97391.20;;;;111016;1248;41937;-59
2022/02/03 07:29:16;;;;;;;17.30;9.00;;;;;2.38;97401.40;;;;111085;1247;41610;-61
2022/02/03 07:31:45;;;;;;;17.70;7.90;;;;;2.40;97409.00;;;;111019;1247;41270;-58
2022/02/03 07:34:16;;;;;;;16.20;7.50;;;;;2.30;97414.80;;;;110958;1248;41422;-63
2022/02/03 07:36:46;;;;;;;;;;;;;2.50;97410.20;;;;110769;1248;41208;-59
2022/02/03 07:39:15;;;;;;;20.00;8.00;;;;;2.46;97415.80;;;;111049;1247;41259;-63
2022/02/03 07:41:44;;;;;;;17.80;8.10;;;;;2.40;97420.40;;;;111063;1247;41784;-61
2022/02/03 07:44:16;;;;;;;16.00;8.60;;;;;2.32;97417.40;;;;111040;1247;41768;-58
2022/02/03 07:46:45;;;;;;;15.00;7.20;;;;;2.40;97418.00;;;;111074;1246;41937;-63
2022/02/03 07:49:14;;;;;;;16.70;7.30;;;;;2.48;97419.00;;;;111004;1247;42154;-59
2022/02/03 07:51:47;;;;;;;17.10;7.40;;;;;2.52;97423.60;;;;110915;1247;41896;-61
2022/02/03 07:54:16;;;;;;;19.20;9.90;;;;;2.60;97428.60;;;;110982;1249;41153;-59
2022/02/03 07:56:45;;;;;;;17.20;7.70;;;;;2.70;97431.20;;;;110960;1248;41325;-63
2022/02/03 07:59:14;;;;;;;16.40;8.30;;;;;2.78;97426.40;;;;111014;1247;41133;-67
2022/02/03 08:01:43;;;;;;;15.70;7.80;;;;;2.70;97425.40;;;;110847;1248;41339;-62
2022/02/03 08:04:14;;;;;;;16.10;8.20;;;;;2.70;97428.60;;;;111028;1247;41144;-63
2022/02/03 08:06:46;;;;;;;15.90;7.20;;;;;2.70;97425.80;;;;111004;1248;41149;-58
2022/02/03 08:09:29;;;;;;;15.60;6.90;;;;;2.70;97436.20;;;;110954;1248;41142;-61
2022/02/03 08:12:02;;;;;;;15.50;6.90;;;;;2.80;97437.80;;;;111021;1248;41591;-62
2022/02/03 08:14:37;;;;;;;15.10;7.20;;;;;2.80;97439.20;;;;111013;1249;40718;-59
2022/02/03 08:17:11;;;;;;;15.20;6.90;;;;;2.60;97440.00;;;;110925;1248;41149;-59
2022/02/03 08:19:49;;;;;;;15.10;7.10;;;;;2.70;97437.80;;;;111027;1246;41484;-63
2022/02/03 08:22:23;;;;;;;13.10;6.30;;;;;2.70;97444.40;;;;110894;1249;41149;-62
2022/02/03 08:25:05;;;;;;;14.80;6.80;;;;;2.80;97446.20;;;;110732;1250;41230;-60
2022/02/03 08:30:34;;;;;;;14.40;7.00;;;;;2.72;97460.60;;;;110781;1249;41663;-63
2022/02/03 08:33:05;;;;;;;;;;;;;2.68;97464.40;;;;110949;1248;41813;-60
2022/02/03 08:35:45;;;;;;;13.60;6.20;;;;;2.80;97471.00;;;;110974;1248;42513;-60
2022/02/03 08:38:20;;;;;;;13.80;6.50;;;;;2.90;97471.80;;;;111007;1248;41179;-59
2022/02/03 08:43:23;;;;;;;13.90;7.10;;;;;2.98;97480.60;;;;111077;1247;41261;-58
2022/02/03 08:45:52;;;;;;;14.70;6.70;;;;;3.00;97482.80;;;;111024;1248;41158;-60
2022/02/03 08:48:21;;;;;;;15.40;7.00;;;;;3.10;97480.00;;;;111013;1248;41742;-62
2022/02/03 08:50:51;;;;;;;13.30;6.80;;;;;3.00;97484.60;;;;110996;1248;41133;-60
2022/02/03 08:58:57;;;;;;;14.90;6.40;;;;;3.30;97500.80;;;;111058;1248;41154;-59
2022/02/03 09:34:51;;;;;;;15.30;7.60;;;;;4.00;97519.20;;;;111087;1247;41151;-59
2022/02/03 09:57:34;;;;;;;14.90;6.40;;;;;4.80;97531.60;;;;110516;1254;42367;-61
2022/02/03 10:00:46;;;;;;;15.30;7.10;;;;;4.98;97530.60;;;;111024;1247;41260;-63
2022/02/03 10:03:21;;;;;;;12.40;5.80;;;;;4.90;97526.40;;;;111092;1247;41271;-61
2022/02/03 10:06:12;;;;;;;14.90;7.40;;;;;5.10;97527.20;;;;111020;1247;41462;-62
2022/02/03 10:08:49;;;;;;;13.90;6.70;;;;;4.80;97522.80;;;;111059;1248;41239;-63
2022/02/03 10:11:26;;;;;;;12.80;6.50;;;;;5.10;97521.00;;;;111119;1246;41153;-63
2022/02/03 10:13:56;;;;;;;13.80;6.60;;;;;5.16;97520.60;;;;111028;1248;41302;-63
2022/02/03 10:16:31;;;;;;;12.50;6.20;;;;;4.76;97514.80;;;;111051;1248;41793;-58
2022/02/03 10:19:19;;;;;;;10.20;5.50;;;;;4.64;97519.60;;;;111057;1249;41181;-61
2022/02/03 10:21:50;;;;;;;11.80;5.60;;;;;4.06;97527.20;;;;111095;1247;41312;-62
2022/02/03 10:24:21;;;;;;;13.90;6.20;;;;;4.40;97526.00;;;;110973;1248;42452;-60
2022/02/03 10:26:53;;;;;;;15.70;6.90;;;;;4.38;97521.80;;;;111080;1248;41193;-61
2022/02/03 10:29:30;;;;;;;15.60;6.80;;;;;4.24;97516.40;;;;111048;1248;41866;-60
2022/02/03 10:31:59;;;;;;;14.30;7.30;;;;;4.14;97519.20;;;;111068;1249;41149;-60
2022/02/03 10:34:32;;;;;;;15.20;7.70;;;;;4.46;97522.20;;;;111080;1248;41260;-61
2022/02/03 10:37:21;;;;;;;16.10;8.70;;;;;4.70;97523.80;;;;111014;1248;41136;-62
2022/02/03 10:53:35;;;;;;;12.00;5.70;;;;;4.88;97528.00;;;;111068;1248;41582;-59
2022/02/03 10:56:54;;;;;;;14.70;8.60;;;;;4.18;97529.60;;;;111071;1247;41158;-61
2022/02/03 11:02:31;;;;;;;14.10;7.50;;;;;5.54;97517.60;;;;111083;1247;42183;-60
2022/02/03 11:05:25;;;;;;;11.00;5.50;;;;;7.18;97516.80;;;;111115;1245;41653;-60
2022/02/03 11:08:01;;;;;;;10.20;4.90;;;;;8.14;97499.80;;;;111058;1246;41156;-59
2022/02/03 11:10:35;;;;;;;13.70;6.20;;;;;8.08;97507.20;;;;110907;1246;41719;-60
2022/02/03 11:13:04;;;;;;;12.30;6.00;;;;;8.66;97510.80;;;;110996;1248;42179;-60
2022/02/03 11:15:34;;;;;;;13.50;6.90;;;;;8.20;97513.80;;;;111105;1247;41174;-60
2022/02/03 11:18:06;;;;;;;11.40;5.70;;;;;8.70;97522.00;;;;111078;1247;42417;-60
2022/02/03 11:20:41;;;;;;;10.00;4.30;;;;;8.38;97522.80;;;;111074;1247;41140;-60
2022/02/03 11:23:23;;;;;;;11.20;5.50;;;;;7.92;97515.20;;;;111075;1246;41133;-58
2022/02/03 11:26:05;;;;;;;11.30;5.60;;;;;8.16;97520.00;;;;111048;1247;41127;-60
2022/02/03 11:31:44;;;;;;;12.00;4.90;;;;;7.56;97532.00;;;;111105;1246;41975;-59
2022/02/03 11:40:45;;;;;;;9.90;4.40;;;;;7.10;97537.00;;;;111105;1246;41136;-60
2022/02/03 11:46:36;;;;;;;9.70;4.30;;;;;6.80;97542.20;;;;110830;1249;41261;-60
2022/02/03 11:57:39;;;;;;;9.10;4.10;;;;;6.48;97543.40;;;;111083;1246;41378;-59
2022/02/03 12:16:55;;;;;;;10.70;4.70;;;;;7.12;97514.00;;;;111057;1248;42359;-59
2022/02/03 12:19:38;;;;;;;9.00;4.00;;;;;8.26;97520.20;;;;110991;1249;41849;-60
2022/02/03 12:25:06;;;;;;;10.50;4.00;;;;;8.70;97527.60;;;;111020;1247;41268;-61
2022/02/03 12:27:56;;;;;;;10.40;3.90;;;;;8.48;97527.80;;;;111099;1247;41263;-58
2022/02/03 12:31:22;;;;;;;9.70;3.90;;;;;8.00;97526.60;;;;111048;1248;41146;-58
2022/02/03 12:39:13;;;;;;;9.20;3.50;;;;;7.14;97536.80;;;;111075;1248;41198;-61
2022/02/03 12:42:01;;;;;;;10.20;3.40;;;;;6.80;97546.20;;;;110617;1249;41280;-60
2022/02/03 12:44:37;;;;;;;10.30;4.00;;;;;6.70;97543.20;;;;110748;1250;41257;-62
2022/02/03 12:47:09;;;;;;;10.30;4.20;;;;;6.70;97540.20;;;;110580;1248;41157;-59
2022/02/03 12:49:40;;;;;;;11.90;4.30;;;;;6.70;97552.40;;;;110923;1249;41155;-64
2022/02/03 12:52:28;;;;;;;7.60;3.20;;;;;6.36;97554.20;;;;110853;1250;41267;-61
2022/02/03 12:54:58;;;;;;;7.60;3.30;;;;;6.80;97557.80;;;;110665;1250;42394;-62
2022/02/03 12:57:33;;;;;;;10.10;4.20;;;;;7.00;97559.80;;;;110835;1247;41152;-63
2022/02/03 13:00:17;;;;;;;8.60;3.60;;;;;6.68;97556.20;;;;110816;1249;41139;-63
2022/02/03 13:03:03;;;;;;;8.90;3.40;;;;;6.92;97561.80;;;;111004;1249;41938;-61
2022/02/03 13:05:38;;;;;;;8.30;3.10;;;;;8.60;97515.00;;;;110906;1249;41141;-63
2022/02/03 13:08:13;;;;;;;8.70;3.60;;;;;11.90;97529.00;;;;110956;1247;41157;-58
2022/02/03 13:10:53;;;;;;;8.60;2.80;;;;;14.34;97510.00;;;;110874;1248;41144;-60
2022/02/03 13:13:51;;;;;;;8.60;3.40;;;;;14.90;97530.20;;;;110950;1249;41149;-63
2022/02/03 13:16:22;;;;;;;8.30;3.40;;;;;14.12;97534.60;;;;110940;1249;41288;-60
2022/02/03 13:19:01;;;;;;;7.60;3.20;;;;;13.68;97540.80;;;;110899;1250;41476;-63
2022/02/03 13:27:02;;;;;;;7.90;2.90;;;;;13.46;97540.60;;;;110959;1248;41138;-61
2022/02/03 13:32:41;;;;;;;7.10;2.80;;;;;10.56;97557.40;;;;110995;1247;43154;-59
2022/02/03 13:35:28;;;;;;;7.10;2.80;;;;;9.32;97568.00;;;;110990;1250;41933;-63
2022/02/03 13:38:18;;;;;;;7.50;2.90;;;;;9.16;97577.80;;;;110960;1248;41198;-62
2022/02/03 13:41:10;;;;;;;8.00;2.90;;;;;8.24;97583.60;;;;111139;1249;41251;-60
2022/02/03 13:43:42;;;;;;;8.30;3.10;;;;;7.70;97590.60;;;;111074;1249;41160;-60
2022/02/03 13:46:24;;;;;;;7.60;2.80;;;;;7.40;97590.40;;;;111147;1248;41142;-59
2022/02/03 13:48:55;;;;;;;7.30;3.00;;;;;7.06;97590.60;;;;110933;1249;41157;-59
2022/02/03 13:51:30;;;;;;;7.80;3.00;;;;;7.02;97599.40;;;;110730;1249;41234;-61
2022/02/03 14:17:19;;;;;;;8.80;3.40;;;;;9.36;97601.60;;;;110929;1249;41161;-62
2022/02/03 14:20:03;;;;;;;8.10;3.30;;;;;10.60;97584.40;;;;110858;1250;41878;-60
2022/02/03 14:22:29;;;;;;;8.60;3.50;;;;;11.48;97593.20;;;;111023;1248;41627;-62
2022/02/03 14:28:03;;;;;;;8.00;3.20;;;;;12.70;97618.40;;;;110734;1249;41425;-60
2022/02/03 14:30:36;;;;;;;7.40;3.00;;;;;12.36;97627.80;;;;110741;1250;41308;-59
2022/02/03 14:33:06;;;;;;;8.50;3.20;;;;;10.94;97637.40;;;;110900;1248;41154;-59
2022/02/03 14:35:35;;;;;;;8.10;3.30;;;;;9.78;97648.20;;;;111041;1248;41130;-60
2022/02/03 14:38:31;;;;;;;8.30;3.10;;;;;9.32;97656.60;;;;110935;1249;41286;-59
2022/02/03 14:43:22;;;;;;;9.40;3.80;;;;;7.66;97657.00;;;;110781;1249;41148;-62
2022/02/03 14:45:52;;;;;;;12.00;3.70;;;;;8.14;97660.80;;;;111003;1249;41761;-58
2022/02/03 14:48:23;;;;;;;9.30;3.90;;;;;8.48;97667.00;;;;110646;1248;42137;-63
2022/02/03 14:50:55;;;;;;;8.10;3.40;;;;;8.16;97676.60;;;;110714;1251;41267;-60
2022/02/03 14:53:39;;;;;;;8.80;3.50;;;;;7.20;97678.80;;;;110735;1249;41268;-64
2022/02/03 14:58:59;;;;;;;9.60;4.60;;;;;6.70;97686.20;;;;110966;1249;41298;-59
2022/02/03 15:01:33;;;;;;;10.70;4.10;;;;;6.70;97682.60;;;;111101;1249;42023;-61
2022/02/03 15:04:06;;;;;;;9.10;3.50;;;;;6.80;97682.80;;;;110816;1249;41793;-60
2022/02/03 15:06:41;;;;;;;8.20;3.20;;;;;6.80;97683.20;;;;110957;1249;41239;-64
2022/02/03 15:14:21;;;;;;;9.90;3.70;;;;;6.30;97694.40;;;;110800;1249;41164;-62
2022/02/03 15:16:53;;;;;;;;;;;;;5.80;97703.60;;;;110882;1249;41142;-62
2022/02/03 15:19:44;;;;;;;8.20;3.40;;;;;5.30;97709.60;;;;110819;1250;41483;-61
2022/02/03 15:22:15;;;;;;;10.20;3.30;;;;;5.20;97723.80;;;;110753;1247;41285;-62
2022/02/03 15:24:45;;;;;;;9.80;3.40;;;;;4.60;97719.20;;;;110865;1250;41131;-62
2022/02/03 15:27:17;;;;;;;9.90;3.50;;;;;3.78;97729.40;;;;110688;1248;40784;-62
2022/02/03 15:29:49;;;;;;;14.90;5.50;;;;;3.70;97735.20;;;;111069;1248;41306;-61
2022/02/03 15:32:19;;;;;;;24.30;9.70;;;;;3.60;97739.20;;;;110967;1249;42072;-62
2022/02/03 15:34:53;;;;;;;17.70;6.60;;;;;3.20;97737.20;;;;110941;1248;41251;-61
2022/02/03 15:37:29;;;;;;;37.20;14.20;;;;;3.20;97738.80;;;;110966;1250;41168;-59
2022/02/03 15:40:04;;;;;;;45.60;20.00;;;;;2.90;97745.20;;;;111021;1249;41761;-60
2022/02/03 15:42:40;;;;;;;36.30;16.00;;;;;2.80;97752.00;;;;111017;1249;41154;-59
2022/02/03 15:45:11;;;;;;;9.60;4.20;;;;;2.68;97750.00;;;;111097;1247;42383;-62
2022/02/03 15:47:46;;;;;;;10.60;4.90;;;;;2.50;97748.80;;;;110630;1249;42388;-63
2022/02/03 15:50:51;;;;;;;8.70;3.50;;;;;2.18;97756.40;;;;110995;1247;41723;-63
2022/02/03 16:01:39;;;;;;;8.70;3.70;;;;;1.70;97771.20;;;;111005;1248;41160;-62
2022/02/03 16:17:47;;;;;;;8.30;3.20;;;;;1.22;97785.60;;;;111024;1248;41630;-63
2022/02/03 16:21:14;;;;;;;8.80;3.50;;;;;1.20;97794.60;;;;110896;1249;41143;-68
2022/02/03 16:23:35;;;;;;;10.50;3.50;;;;;1.10;97805.60;;;;110821;1247;41157;-62
2022/02/03 16:51:18;;;;;;;12.80;3.90;;;;;0.78;97817.20;;;;110991;1248;41122;-60
2022/02/03 16:53:47;;;;;;;9.80;4.20;;;;;0.70;97818.20;;;;111042;1247;42449;-61
2022/02/03 16:56:17;;;;;;;8.90;3.80;;;;;0.64;97813.20;;;;111048;1248;41177;-63
2022/02/03 16:58:46;;;;;;;9.20;3.70;;;;;0.64;97822.20;;;;110826;1249;41327;-59
2022/02/03 17:01:16;;;;;;;10.00;3.90;;;;;0.60;97820.00;;;;110995;1249;41261;-62
2022/02/03 17:03:45;;;;;;;9.40;3.90;;;;;0.50;97817.80;;;;110845;1250;41902;-60
2022/02/03 17:06:15;;;;;;;10.40;3.70;;;;;0.50;97816.80;;;;110655;1249;41387;-62
2022/02/03 17:08:44;;;;;;;8.60;3.50;;;;;0.50;97815.20;;;;110608;1252;41212;-62
2022/02/03 17:11:13;;;;;;;8.50;3.60;;;;;0.50;97822.80;;;;110904;1249;41372;-60
2022/02/03 17:13:43;;;;;;;8.90;3.40;;;;;0.50;97823.20;;;;110862;1250;41255;-63
2022/02/03 17:16:16;;;;;;;9.40;3.80;;;;;0.42;97817.20;;;;111055;1249;41149;-63
2022/02/03 17:18:45;;;;;;;10.80;3.50;;;;;0.40;97827.40;;;;110946;1247;41305;-62
2022/02/03 17:21:14;;;;;;;9.60;3.90;;;;;0.40;97826.40;;;;110723;1249;41904;-61
2022/02/03 17:23:44;;;;;;;9.70;3.80;;;;;0.40;97831.20;;;;110769;1249;41142;-60
2022/02/03 17:26:23;;;;;;;9.60;3.60;;;;;0.36;97829.00;;;;111050;1249;41156;-60
2022/02/03 17:29:02;;;;;;;10.20;3.80;;;;;0.30;97827.80;;;;110995;1248;41971;-59
2022/02/03 18:54:29;;;;;;;17.50;7.70;;;;;-0.86;97866.60;;;;110837;1248;41510;-61
2022/02/03 18:57:13;;;;;;;18.00;8.10;;;;;-0.90;97870.80;;;;111068;1248;41171;-61
2022/02/03 19:59:06;;;;;;;17.20;8.30;;;;;-2.30;97908.00;;;;110993;1248;41131;-60
2022/02/03 20:06:30;;;;;;;57.40;25.00;;;;;-2.52;97919.40;;;;110926;1249;41613;-62
2022/02/03 20:11:39;;;;;;;52.90;23.20;;;;;-2.60;97909.80;;;;111017;1248;41267;-59
2022/02/03 20:14:14;;;;;;;36.70;17.90;;;;;-2.70;97915.20;;;;111047;1246;41198;-61
2022/02/03 20:16:44;;;;;;;37.70;17.40;;;;;-2.70;97912.00;;;;111003;1248;41154;-62
2022/02/03 20:19:13;;;;;;;32.90;13.80;;;;;-2.70;97912.40;;;;111018;1249;41136;-61
2022/02/03 20:21:43;;;;;;;27.90;11.80;;;;;-2.80;97906.40;;;;111007;1248;41149;-62
2022/02/03 20:24:12;;;;;;;35.40;15.60;;;;;-2.80;97923.80;;;;111056;1247;41815;-60
2022/02/03 20:26:42;;;;;;;36.30;16.70;;;;;-2.82;97915.80;;;;111009;1250;41173;-60
2022/02/03 20:29:11;;;;;;;40.00;17.90;;;;;-2.90;97922.00;;;;111018;1248;41145;-62
2022/02/03 20:31:41;;;;;;;32.30;15.20;;;;;-2.90;97933.20;;;;111028;1248;41294;-61
2022/02/03 20:34:11;;;;;;;29.60;13.50;;;;;-3.00;97934.20;;;;111092;1247;41701;-61
2022/02/03 20:36:40;;;;;;;26.40;12.40;;;;;-3.00;97935.60;;;;110948;1248;42711;-61
2022/02/03 20:39:09;;;;;;;24.60;11.70;;;;;-3.10;97938.60;;;;110981;1248;41156;-61
2022/02/03 20:41:38;;;;;;;26.10;12.20;;;;;-3.10;97935.20;;;;111023;1249;42319;-62
2022/02/03 20:44:07;;;;;;;29.00;12.70;;;;;-3.20;97932.20;;;;111132;1248;41620;-63
2022/02/03 20:46:37;;;;;;;28.40;13.20;;;;;-3.20;97935.20;;;;110943;1248;41782;-62
2022/02/03 20:49:09;;;;;;;26.90;12.60;;;;;-3.20;97927.40;;;;110990;1248;41149;-60
2022/02/03 20:51:40;;;;;;;31.20;13.30;;;;;-3.28;97927.60;;;;111041;1249;41206;-62
2022/02/03 20:54:09;;;;;;;24.90;12.00;;;;;-3.30;97930.60;;;;111090;1248;41696;-61
2022/02/03 20:56:39;;;;;;;24.00;12.00;;;;;-3.30;97932.20;;;;111162;1248;41146;-61
2022/02/03 20:59:10;;;;;;;19.70;9.70;;;;;-3.30;97932.20;;;;111036;1249;42557;-59
2022/02/03 21:01:42;;;;;;;18.00;8.50;;;;;-3.40;97943.00;;;;111039;1249;42151;-59
2022/02/03 21:04:26;;;;;;;20.20;8.40;;;;;-3.40;97945.60;;;;110937;1248;259609;-61
2022/02/03 21:06:55;;;;;;;17.80;8.30;;;;;-3.40;97944.40;;;;111166;1248;41355;-60
2022/02/03 21:09:25;;;;;;;19.70;8.20;;;;;-3.46;97949.20;;;;111040;1248;41149;-60
2022/02/03 21:11:54;;;;;;;18.90;8.30;;;;;-3.50;97946.40;;;;111045;1249;41291;-60
2022/02/03 21:14:24;;;;;;;16.10;7.70;;;;;-3.50;97943.00;;;;110856;1249;41155;-61
2022/02/03 21:16:53;;;;;;;16.20;8.10;;;;;-3.50;97953.40;;;;110950;1248;41609;-60
2022/02/03 21:19:22;;;;;;;16.30;7.20;;;;;-3.52;97948.60;;;;110999;1248;41601;-61
2022/02/03 21:21:51;;;;;;;16.20;7.30;;;;;-3.60;97953.20;;;;111064;1249;41292;-59
2022/02/03 21:24:20;;;;;;;15.20;7.80;;;;;-3.60;97952.80;;;;111031;1248;41649;-63
2022/02/03 21:26:58;;;;;;;18.40;9.40;;;;;-3.60;97954.20;;;;110985;1248;42030;-62
2022/02/03 21:29:27;;;;;;;17.90;9.20;;;;;-3.60;97950.80;;;;111071;1248;41589;-60
2022/02/03 21:31:56;;;;;;;23.60;10.60;;;;;-3.60;97949.40;;;;111044;1246;42356;-59
2022/02/03 21:34:26;;;;;;;27.40;11.90;;;;;-3.60;97947.80;;;;110980;1248;41144;-59
2022/02/03 21:36:56;;;;;;;26.60;12.10;;;;;-3.58;97947.80;;;;111029;1249;41858;-60
2022/02/03 21:39:25;;;;;;;24.80;11.30;;;;;-3.60;97946.60;;;;111017;1248;41626;-60
2022/02/03 21:41:54;;;;;;;19.30;10.00;;;;;-3.60;97958.00;;;;110861;1250;41255;-59
2022/02/03 21:44:27;;;;;;;29.30;13.60;;;;;-3.60;97953.60;;;;110886;1247;41779;-59
2022/02/03 21:46:57;;;;;;;23.40;11.20;;;;;-3.60;97952.00;;;;111004;1248;41139;-61
2022/02/03 21:49:26;;;;;;;17.20;8.70;;;;;-3.60;97945.80;;;;111056;1247;41199;-60
2022/02/03 21:51:55;;;;;;;21.20;8.50;;;;;-3.60;97944.40;;;;110950;1249;41166;-61
2022/02/03 21:54:24;;;;;;;18.10;8.90;;;;;-3.60;97943.60;;;;110891;1250;41261;-60
2022/02/03 21:56:53;;;;;;;17.90;8.30;;;;;-3.60;97941.20;;;;111023;1248;41254;-60
2022/02/03 21:59:22;;;;;;;19.20;9.40;;;;;-3.60;97941.60;;;;111035;1248;41837;-59
2022/02/03 22:01:52;;;;;;;21.40;9.60;;;;;-3.70;97944.80;;;;111013;1246;41830;-60
2022/02/03 22:04:21;;;;;;;21.30;9.80;;;;;-3.70;97945.20;;;;111003;1247;41162;-61
2022/02/03 22:06:50;;;;;;;23.00;11.20;;;;;-3.70;97942.20;;;;111036;1248;41590;-61
2022/02/03 22:09:21;;;;;;;23.50;10.60;;;;;-3.74;97937.80;;;;110836;1249;41375;-60
2022/02/03 22:11:51;;;;;;;23.80;11.00;;;;;-3.76;97942.60;;;;111095;1248;41150;-60
2022/02/03 22:14:19;;;;;;;21.60;11.00;;;;;-3.80;97942.20;;;;111024;1248;41501;-60
2022/02/03 22:16:50;;;;;;;21.40;10.20;;;;;-3.80;97947.60;;;;110989;1249;41142;-61
2022/02/03 22:19:18;;;;;;;20.30;9.20;;;;;-3.80;97951.20;;;;111010;1249;41152;-61
2022/02/03 22:21:59;;;;;;;19.70;8.40;;;;;-3.78;97948.80;;;;111060;1247;41520;-59
2022/02/03 22:25:00;;;;;;;19.30;8.60;;;;;-3.78;97959.80;;;;111074;1248;41252;-60
2022/02/03 22:39:00;;;;;;;18.30;8.80;;;;;-3.80;97942.40;;;;111117;1247;41612;-61
2022/02/03 22:49:25;;;;;;;16.70;7.40;;;;;-3.90;97943.20;;;;110922;1249;41149;-59
2022/02/03 22:51:54;;;;;;;20.30;7.90;;;;;-4.00;97943.80;;;;111019;1249;42037;-58
2022/02/03 22:54:23;;;;;;;20.80;8.50;;;;;-4.00;97948.00;;;;111034;1250;41250;-59
2022/02/03 22:56:52;;;;;;;21.50;8.80;;;;;-4.00;97951.40;;;;110805;1248;41271;-60
2022/02/03 23:00:01;;;;;;;20.90;8.90;;;;;-4.00;97938.20;;;;111013;1248;42252;-59
2022/02/03 23:02:11;;;;;;;20.00;8.40;;;;;-4.00;97936.40;;;;111079;1249;42229;-59
2022/02/03 23:04:41;;;;;;;19.00;8.20;;;;;-4.00;97936.80;;;;111107;1249;41325;-60
2022/02/03 23:07:21;;;;;;;19.20;8.60;;;;;-3.90;97933.20;;;;111046;1247;41137;-58
2022/02/03 23:10:11;;;;;;;19.90;8.40;;;;;-3.80;97935.00;;;;111006;1248;41186;-59
2022/02/03 23:18:09;;;;;;;23.80;9.70;;;;;-3.80;97934.40;;;;111148;1247;42453;-60
2022/02/03 23:20:45;;;;;;;24.50;9.60;;;;;-3.80;97926.80;;;;111049;1247;41153;-61
2022/02/03 23:23:14;;;;;;;23.20;9.10;;;;;-3.80;97928.40;;;;110883;1249;41148;-59
2022/02/03 23:25:45;;;;;;;17.70;8.70;;;;;-3.80;97926.40;;;;111080;1248;41477;-61